createdAt,value
2023-01-09T01:06:22.810Z,4.88
2023-01-09T01:45:38.663Z,4.93
2023-01-09T02:28:36.673Z,4.86
2023-01-09T02:32:24.169Z,4.33
2023-01-09T02:39:24.378Z,4.90
2023-01-09T02:46:13.382Z,4.94
2023-01-09T02:49:19.758Z,4.39
2023-01-09T02:56:05.717Z,4.87
2023-01-09T03:03:19.072Z,4.84
2023-01-09T03:37:40.757Z,4.09
2023-01-09T03:53:59.794Z,3.84
2023-01-09T03:56:29.263Z,4.08
2023-01-09T03:58:58.275Z,4.13
2023-01-09T04:01:29.164Z,3.75
2023-01-09T04:03:58.383Z,3.86
2023-01-09T04:06:28.101Z,3.87
2023-01-09T04:08:57.398Z,4.07
2023-01-09T04:11:27.050Z,4.06
2023-01-09T04:13:56.309Z,3.99
2023-01-09T04:16:25.539Z,4.62
2023-01-09T04:18:59.618Z,4.51
2023-01-09T04:31:59.439Z,4.37
2023-01-09T04:41:47.042Z,4.47
2023-01-09T04:44:17.040Z,4.23
2023-01-09T04:46:46.330Z,4.39
2023-01-09T04:49:16.036Z,4.41
2023-01-09T04:51:46.315Z,4.75
2023-01-09T04:54:16.591Z,4.53
2023-01-09T04:56:45.408Z,4.42
2023-01-09T04:59:15.225Z,4.61
2023-01-09T05:01:45.187Z,4.17
2023-01-09T05:04:14.588Z,4.46
2023-01-09T05:06:43.767Z,4.36
2023-01-09T05:09:14.213Z,4.50
2023-01-09T05:11:44.483Z,4.47
2023-01-09T05:14:22.891Z,4.74
2023-01-09T05:25:09.160Z,4.45
2023-01-09T05:28:40.939Z,4.44
2023-01-09T05:55:21.314Z,5.11
2023-01-09T06:02:03.887Z,5.24
2023-01-09T06:05:45.379Z,4.88
2023-01-09T06:09:31.069Z,5.39
2023-01-09T06:13:30.818Z,4.78
2023-01-09T06:16:58.712Z,4.90
2023-01-09T06:19:36.095Z,5.34
2023-01-09T06:22:22.440Z,5.37
2023-01-09T06:25:43.987Z,5.51
2023-01-09T06:28:19.126Z,5.27
2023-01-09T06:31:18.434Z,5.09
2023-01-09T06:35:10.355Z,5.64
2023-01-09T06:37:40.468Z,5.46
2023-01-09T06:40:10.638Z,5.20
2023-01-09T06:42:39.567Z,5.35
2023-01-09T06:45:10.132Z,5.83
2023-01-09T06:47:39.307Z,5.37
2023-01-09T06:50:10.936Z,5.70
2023-01-09T06:52:40.094Z,5.95
2023-01-09T06:55:09.639Z,5.75
2023-01-09T06:57:38.079Z,6.07
2023-01-09T07:00:07.683Z,5.65
2023-01-09T07:02:36.199Z,5.70
2023-01-09T07:05:08.773Z,5.75
2023-01-09T07:07:39.631Z,6.25
2023-01-09T07:10:09.787Z,5.89
2023-01-09T07:12:38.355Z,6.21
2023-01-09T07:15:07.805Z,6.10
2023-01-09T07:17:36.403Z,6.22
2023-01-09T07:20:06.073Z,6.38
2023-01-09T07:22:34.890Z,6.39
2023-01-09T07:25:05.172Z,6.46
2023-01-09T07:27:33.596Z,6.48
2023-01-09T07:30:02.341Z,6.46
2023-01-09T07:32:31.085Z,6.36
2023-01-09T07:41:49.016Z,6.28
2023-01-09T07:44:17.977Z,6.45
2023-01-09T07:46:47.055Z,6.28
2023-01-09T07:49:15.695Z,5.98
2023-01-09T07:51:46.227Z,6.48
2023-01-09T07:54:15.069Z,6.29
2023-01-09T07:56:43.735Z,6.11
2023-01-09T07:59:13.781Z,6.07
2023-01-09T08:01:44.207Z,6.35
2023-01-09T08:11:19.625Z,6.34
2023-01-09T08:13:48.196Z,6.33
2023-01-09T08:16:18.008Z,6.35
2023-01-09T08:18:46.940Z,6.36
2023-01-09T08:21:15.389Z,6.35
2023-01-09T08:23:45.869Z,6.28
2023-01-09T08:26:14.420Z,6.43
2023-01-09T08:28:43.589Z,6.42
2023-01-09T08:31:12.224Z,6.39
2023-01-09T08:33:42.659Z,6.40
2023-01-09T08:36:11.197Z,6.40
2023-01-09T08:38:40.008Z,6.38
2023-01-09T08:41:22.373Z,6.39
2023-01-09T08:44:08.867Z,6.50
2023-01-09T08:46:54.538Z,6.51
2023-01-09T08:49:24.795Z,6.53
2023-01-09T08:51:53.673Z,6.55
2023-01-09T08:54:22.052Z,6.58
2023-01-09T08:56:51.087Z,6.59
2023-01-09T08:59:19.815Z,6.60
2023-01-09T09:01:48.369Z,6.62
2023-01-09T09:04:17.042Z,6.68
2023-01-09T09:51:37.284Z,6.51
2023-01-09T09:54:15.103Z,6.75
2023-01-09T10:41:41.532Z,7.02
2023-01-09T10:44:18.326Z,6.93
2023-01-09T10:46:50.849Z,7.00
2023-01-09T10:49:20.030Z,6.78
2023-01-09T10:51:51.495Z,6.57
2023-01-09T10:54:23.780Z,6.54
2023-01-09T10:56:57.513Z,6.66
2023-01-09T10:59:27.190Z,6.81
2023-01-09T11:01:56.489Z,6.86
2023-01-09T11:04:28.551Z,7.13
2023-01-09T11:07:02.046Z,6.75
2023-01-09T11:09:57.846Z,6.65
2023-01-09T11:12:31.559Z,6.61
2023-01-09T11:15:31.537Z,6.57
2023-01-09T11:18:24.346Z,6.62
2023-01-09T11:20:54.646Z,7.05
2023-01-09T11:23:34.483Z,6.86
2023-01-09T11:26:03.992Z,6.84
2023-01-09T11:28:34.087Z,7.08
2023-01-09T11:31:03.848Z,6.53
2023-01-09T11:33:37.187Z,6.90
2023-01-09T11:36:11.031Z,6.91
2023-01-09T11:38:52.454Z,7.10
2023-01-09T11:41:24.144Z,7.08
2023-01-09T11:43:58.986Z,7.12
2023-01-09T11:46:37.208Z,6.70
2023-01-09T11:49:21.331Z,6.92
2023-01-09T11:52:14.751Z,6.78
2023-01-09T11:54:48.725Z,7.14
2023-01-09T11:57:18.030Z,6.78
2023-01-09T12:01:12.285Z,6.80
2023-01-09T12:11:55.278Z,7.18
2023-01-09T12:26:26.780Z,6.93
2023-01-09T12:29:52.778Z,6.80
2023-01-09T12:33:12.040Z,6.86
2023-01-09T12:40:14.814Z,7.04
2023-01-09T12:46:22.305Z,7.21
2023-01-09T12:49:10.271Z,7.28
2023-01-09T12:51:43.822Z,7.28
2023-01-09T12:54:18.207Z,7.65
2023-01-09T15:02:31.158Z,7.78
2023-01-09T17:27:24.929Z,6.45
2023-01-09T17:30:47.812Z,6.46
2023-01-09T18:44:12.506Z,5.87
2023-01-09T18:46:42.172Z,5.78
2023-01-09T18:49:11.398Z,5.87
2023-01-09T18:51:40.704Z,5.68
2023-01-09T18:54:09.835Z,6.05
2023-01-09T18:56:41.557Z,6.28
2023-01-09T19:31:39.748Z,5.52
2023-01-09T19:34:09.125Z,6.06
2023-01-09T19:36:38.887Z,5.96
2023-01-09T19:39:09.110Z,5.96
2023-01-09T19:41:38.169Z,5.50
2023-01-09T19:44:07.626Z,6.10
2023-01-09T19:46:36.639Z,6.08
2023-01-09T19:49:08.181Z,5.77
2023-01-09T19:51:37.936Z,5.50
2023-01-09T20:04:05.136Z,5.49
2023-01-09T20:06:36.715Z,5.45
2023-01-09T20:20:25.140Z,6.11
2023-01-09T20:29:55.374Z,5.76
2023-01-09T20:32:23.835Z,5.94
2023-01-09T20:34:52.425Z,5.82
2023-01-09T20:37:21.013Z,5.76
2023-01-09T20:39:53.022Z,5.70
2023-01-09T20:42:22.063Z,5.82
2023-01-09T20:44:53.602Z,5.67
2023-01-09T20:47:22.834Z,5.51
2023-01-09T20:49:51.673Z,5.65
2023-01-09T20:52:23.096Z,5.53
2023-01-09T20:54:52.941Z,5.68
2023-01-09T20:57:21.901Z,5.44
2023-01-09T20:59:50.304Z,5.49
2023-01-09T21:02:22.332Z,5.68
2023-01-09T21:07:34.002Z,5.38
2023-01-09T21:10:03.938Z,5.34
2023-01-09T21:12:35.770Z,5.42
2023-01-09T21:15:07.382Z,5.41
2023-01-09T21:17:37.776Z,5.24
2023-01-09T21:20:08.772Z,5.53
2023-01-09T21:22:38.611Z,5.56
2023-01-09T21:25:09.485Z,5.55
2023-01-09T21:27:43.158Z,5.52
2023-01-09T21:30:12.330Z,5.53
2023-01-09T21:32:41.199Z,5.53
2023-01-09T21:35:10.771Z,5.53
2023-01-09T21:37:39.812Z,5.54
2023-01-09T21:40:13.815Z,5.56
2023-01-09T21:43:00.220Z,5.58
2023-01-09T21:45:45.275Z,5.55
2023-01-09T21:48:13.804Z,5.56
2023-01-09T22:14:10.561Z,5.47
2023-01-09T22:16:50.824Z,5.41
2023-01-09T22:26:56.690Z,5.30
2023-01-09T22:36:42.194Z,5.28
2023-01-09T22:39:59.124Z,5.26
2023-01-09T22:43:07.601Z,5.29
2023-01-09T22:56:27.388Z,5.35
2023-01-09T22:58:59.922Z,5.34
2023-01-09T23:01:28.480Z,5.34
2023-01-09T23:03:57.876Z,5.34
2023-01-09T23:06:26.487Z,5.22
2023-01-09T23:08:55.336Z,5.33
2023-01-09T23:11:44.174Z,5.37
2023-01-09T23:14:14.631Z,5.33
2023-01-09T23:16:43.916Z,4.85
2023-01-09T23:19:15.656Z,5.31
2023-01-09T23:21:46.070Z,5.29
2023-01-09T23:24:15.665Z,5.26
2023-01-09T23:26:45.929Z,5.29
2023-01-09T23:29:16.034Z,5.29
2023-01-09T23:31:44.413Z,5.23
2023-01-09T23:34:16.048Z,5.27
2023-01-09T23:36:44.721Z,5.34
2023-01-09T23:39:13.776Z,5.23
2023-01-09T23:42:00.421Z,5.29
2023-01-09T23:44:30.163Z,5.35
